sensor_id;sensor_type;location;lat;lon;timestamp;P1;durP1;ratioP1;P2;durP2;ratioP2
64598;SDS011;51008;51.504;11.548;2023-04-24T00:00:17;5.72;;;3.42;;
64598;SDS011;51008;51.504;11.548;2023-04-24T00:05:18;6.05;;;2.80;;
64598;SDS011;51008;51.504;11.548;2023-04-24T00:10:19;5.97;;;2.90;;
64598;SDS011;51008;51.504;11.548;2023-04-24T00:15:20;7.82;;;3.47;;
64598;SDS011;51008;51.504;11.548;2023-04-24T00:20:21;5.72;;;3.28;;
64598;SDS011;51008;51.504;11.548;2023-04-24T00:25:22;5.85;;;3.13;;
64598;SDS011;51008;51.504;11.548;2023-04-24T00:30:23;6.60;;;3.22;;
64598;SDS011;51008;51.504;11.548;2023-04-24T00:35:24;4.65;;;2.45;;
64598;SDS011;51008;51.504;11.548;2023-04-24T00:40:25;3.50;;;2.28;;
64598;SDS011;51008;51.504;11.548;2023-04-24T00:45:27;3.72;;;2.10;;
64598;SDS011;51008;51.504;11.548;2023-04-24T00:50:28;5.10;;;2.35;;
64598;SDS011;51008;51.504;11.548;2023-04-24T00:55:30;4.38;;;1.90;;
64598;SDS011;51008;51.504;11.548;2023-04-24T01:00:32;3.50;;;1.90;;
64598;SDS011;51008;51.504;11.548;2023-04-24T01:05:33;4.95;;;2.17;;
64598;SDS011;51008;51.504;11.548;2023-04-24T01:10:35;3.35;;;1.75;;
64598;SDS011;51008;51.504;11.548;2023-04-24T01:15:38;4.73;;;1.60;;
64598;SDS011;51008;51.504;11.548;2023-04-24T01:20:41;3.05;;;1.58;;
64598;SDS011;51008;51.504;11.548;2023-04-24T01:25:43;2.72;;;1.60;;
64598;SDS011;51008;51.504;11.548;2023-04-24T01:30:44;3.63;;;1.52;;
64598;SDS011;51008;51.504;11.548;2023-04-24T01:35:45;3.25;;;1.60;;
64598;SDS011;51008;51.504;11.548;2023-04-24T01:40:46;1.77;;;1.40;;
64598;SDS011;51008;51.504;11.548;2023-04-24T01:45:47;4.55;;;2.00;;
64598;SDS011;51008;51.504;11.548;2023-04-24T01:50:48;7.25;;;1.52;;
64598;SDS011;51008;51.504;11.548;2023-04-24T01:55:49;3.03;;;1.90;;
64598;SDS011;51008;51.504;11.548;2023-04-24T02:00:50;2.75;;;1.73;;
64598;SDS011;51008;51.504;11.548;2023-04-24T02:05:51;3.35;;;1.70;;
64598;SDS011;51008;51.504;11.548;2023-04-24T02:10:52;4.22;;;1.92;;
64598;SDS011;51008;51.504;11.548;2023-04-24T02:15:53;2.78;;;1.90;;
64598;SDS011;51008;51.504;11.548;2023-04-24T02:20:54;4.03;;;1.90;;
64598;SDS011;51008;51.504;11.548;2023-04-24T02:25:55;4.35;;;1.83;;
64598;SDS011;51008;51.504;11.548;2023-04-24T02:30:56;3.88;;;2.28;;
64598;SDS011;51008;51.504;11.548;2023-04-24T02:35:57;3.85;;;2.00;;
64598;SDS011;51008;51.504;11.548;2023-04-24T02:40:58;2.90;;;2.13;;
64598;SDS011;51008;51.504;11.548;2023-04-24T02:46:00;3.60;;;2.10;;
64598;SDS011;51008;51.504;11.548;2023-04-24T02:51:01;4.40;;;2.13;;
64598;SDS011;51008;51.504;11.548;2023-04-24T02:56:02;3.15;;;1.90;;
64598;SDS011;51008;51.504;11.548;2023-04-24T03:01:03;3.55;;;2.00;;
64598;SDS011;51008;51.504;11.548;2023-04-24T03:06:05;3.80;;;2.08;;
64598;SDS011;51008;51.504;11.548;2023-04-24T03:11:06;5.15;;;2.15;;
64598;SDS011;51008;51.504;11.548;2023-04-24T03:16:07;5.78;;;2.10;;
64598;SDS011;51008;51.504;11.548;2023-04-24T03:21:08;5.72;;;2.10;;
64598;SDS011;51008;51.504;11.548;2023-04-24T03:26:09;4.20;;;2.33;;
64598;SDS011;51008;51.504;11.548;2023-04-24T03:31:14;4.50;;;2.05;;
64598;SDS011;51008;51.504;11.548;2023-04-24T03:36:16;5.28;;;2.47;;
64598;SDS011;51008;51.504;11.548;2023-04-24T03:41:18;3.33;;;2.40;;
64598;SDS011;51008;51.504;11.548;2023-04-24T03:46:23;3.55;;;1.95;;
64598;SDS011;51008;51.504;11.548;2023-04-24T03:51:29;2.70;;;1.85;;
64598;SDS011;51008;51.504;11.548;2023-04-24T03:56:36;4.80;;;2.08;;
64598;SDS011;51008;51.504;11.548;2023-04-24T04:01:37;3.03;;;1.73;;
64598;SDS011;51008;51.504;11.548;2023-04-24T04:06:47;5.05;;;1.73;;
64598;SDS011;51008;51.504;11.548;2023-04-24T04:11:49;2.90;;;1.80;;
64598;SDS011;51008;51.504;11.548;2023-04-24T04:16:50;2.50;;;1.73;;
64598;SDS011;51008;51.504;11.548;2023-04-24T04:21:51;3.55;;;1.70;;
64598;SDS011;51008;51.504;11.548;2023-04-24T04:27:18;6.43;;;2.40;;
64598;SDS011;51008;51.504;11.548;2023-04-24T04:32:25;3.30;;;1.80;;
64598;SDS011;51008;51.504;11.548;2023-04-24T04:37:27;4.75;;;2.10;;
64598;SDS011;51008;51.504;11.548;2023-04-24T04:42:41;3.03;;;1.83;;
64598;SDS011;51008;51.504;11.548;2023-04-24T04:47:42;5.00;;;2.10;;
64598;SDS011;51008;51.504;11.548;2023-04-24T04:52:43;4.40;;;2.85;;
64598;SDS011;51008;51.504;11.548;2023-04-24T04:58:01;3.80;;;1.75;;
64598;SDS011;51008;51.504;11.548;2023-04-24T05:03:02;2.47;;;1.67;;
64598;SDS011;51008;51.504;11.548;2023-04-24T05:08:04;6.40;;;2.03;;
64598;SDS011;51008;51.504;11.548;2023-04-24T05:13:05;3.30;;;2.10;;
64598;SDS011;51008;51.504;11.548;2023-04-24T05:18:08;2.75;;;1.77;;
64598;SDS011;51008;51.504;11.548;2023-04-24T05:23:09;3.10;;;1.50;;
64598;SDS011;51008;51.504;11.548;2023-04-24T05:28:13;4.70;;;2.00;;
64598;SDS011;51008;51.504;11.548;2023-04-24T05:33:14;4.28;;;2.00;;
64598;SDS011;51008;51.504;11.548;2023-04-24T05:38:15;2.58;;;1.90;;
64598;SDS011;51008;51.504;11.548;2023-04-24T05:43:16;5.75;;;2.20;;
64598;SDS011;51008;51.504;11.548;2023-04-24T05:48:17;3.88;;;1.80;;
64598;SDS011;51008;51.504;11.548;2023-04-24T05:53:18;5.00;;;1.90;;
64598;SDS011;51008;51.504;11.548;2023-04-24T05:58:19;5.18;;;1.73;;
64598;SDS011;51008;51.504;11.548;2023-04-24T06:03:22;4.47;;;2.20;;
64598;SDS011;51008;51.504;11.548;2023-04-24T06:08:23;3.70;;;1.83;;
64598;SDS011;51008;51.504;11.548;2023-04-24T06:13:24;3.30;;;2.10;;
64598;SDS011;51008;51.504;11.548;2023-04-24T06:18:44;4.85;;;2.40;;
64598;SDS011;51008;51.504;11.548;2023-04-24T06:23:45;4.43;;;2.55;;
64598;SDS011;51008;51.504;11.548;2023-04-24T06:28:46;4.95;;;2.10;;
64598;SDS011;51008;51.504;11.548;2023-04-24T06:33:47;3.10;;;1.70;;
64598;SDS011;51008;51.504;11.548;2023-04-24T06:38:49;4.63;;;1.63;;
64598;SDS011;51008;51.504;11.548;2023-04-24T06:43:50;1.52;;;1.30;;
64598;SDS011;51008;51.504;11.548;2023-04-24T06:48:52;2.65;;;1.45;;
64598;SDS011;51008;51.504;11.548;2023-04-24T06:53:53;2.70;;;1.70;;
64598;SDS011;51008;51.504;11.548;2023-04-24T06:58:54;4.43;;;2.00;;
64598;SDS011;51008;51.504;11.548;2023-04-24T07:03:55;3.60;;;1.50;;
64598;SDS011;51008;51.504;11.548;2023-04-24T07:08:56;3.47;;;1.50;;
64598;SDS011;51008;51.504;11.548;2023-04-24T07:13:57;3.45;;;1.42;;
64598;SDS011;51008;51.504;11.548;2023-04-24T07:18:58;5.18;;;1.67;;
64598;SDS011;51008;51.504;11.548;2023-04-24T07:23:59;3.47;;;1.40;;
64598;SDS011;51008;51.504;11.548;2023-04-24T07:29:00;3.63;;;1.55;;
64598;SDS011;51008;51.504;11.548;2023-04-24T07:34:01;5.03;;;1.90;;
64598;SDS011;51008;51.504;11.548;2023-04-24T07:39:02;4.88;;;1.60;;
64598;SDS011;51008;51.504;11.548;2023-04-24T07:44:03;7.60;;;1.63;;
64598;SDS011;51008;51.504;11.548;2023-04-24T07:49:04;3.53;;;1.70;;
64598;SDS011;51008;51.504;11.548;2023-04-24T07:54:05;2.42;;;1.70;;
64598;SDS011;51008;51.504;11.548;2023-04-24T07:59:06;3.42;;;1.77;;
64598;SDS011;51008;51.504;11.548;2023-04-24T08:04:07;3.33;;;1.80;;
64598;SDS011;51008;51.504;11.548;2023-04-24T08:09:08;3.33;;;1.77;;
64598;SDS011;51008;51.504;11.548;2023-04-24T08:14:09;6.18;;;1.83;;
64598;SDS011;51008;51.504;11.548;2023-04-24T08:19:10;5.38;;;1.88;;
64598;SDS011;51008;51.504;11.548;2023-04-24T08:24:11;5.45;;;2.00;;
64598;SDS011;51008;51.504;11.548;2023-04-24T08:29:12;3.05;;;1.85;;
64598;SDS011;51008;51.504;11.548;2023-04-24T08:34:13;3.67;;;1.80;;
64598;SDS011;51008;51.504;11.548;2023-04-24T08:39:14;2.92;;;1.67;;
64598;SDS011;51008;51.504;11.548;2023-04-24T08:44:16;4.03;;;1.80;;
64598;SDS011;51008;51.504;11.548;2023-04-24T08:49:17;4.47;;;1.70;;
64598;SDS011;51008;51.504;11.548;2023-04-24T08:54:18;3.85;;;1.80;;
64598;SDS011;51008;51.504;11.548;2023-04-24T08:59:20;3.40;;;1.70;;
64598;SDS011;51008;51.504;11.548;2023-04-24T09:04:22;5.72;;;2.30;;
64598;SDS011;51008;51.504;11.548;2023-04-24T09:09:24;3.45;;;1.90;;
64598;SDS011;51008;51.504;11.548;2023-04-24T09:14:26;3.33;;;1.90;;
64598;SDS011;51008;51.504;11.548;2023-04-24T09:19:27;2.33;;;1.70;;
64598;SDS011;51008;51.504;11.548;2023-04-24T09:24:28;2.63;;;1.73;;
64598;SDS011;51008;51.504;11.548;2023-04-24T09:29:29;3.50;;;1.65;;
64598;SDS011;51008;51.504;11.548;2023-04-24T09:34:30;2.75;;;1.80;;
64598;SDS011;51008;51.504;11.548;2023-04-24T09:39:31;3.55;;;1.80;;
64598;SDS011;51008;51.504;11.548;2023-04-24T09:44:34;5.20;;;2.17;;
64598;SDS011;51008;51.504;11.548;2023-04-24T09:49:35;3.63;;;1.80;;
64598;SDS011;51008;51.504;11.548;2023-04-24T09:54:36;2.67;;;1.60;;
64598;SDS011;51008;51.504;11.548;2023-04-24T09:59:45;2.97;;;2.00;;
64598;SDS011;51008;51.504;11.548;2023-04-24T10:04:56;2.17;;;1.65;;
64598;SDS011;51008;51.504;11.548;2023-04-24T10:09:57;2.42;;;1.63;;
64598;SDS011;51008;51.504;11.548;2023-04-24T10:14:59;3.28;;;1.63;;
64598;SDS011;51008;51.504;11.548;2023-04-24T10:20:01;3.03;;;1.70;;
64598;SDS011;51008;51.504;11.548;2023-04-24T10:25:03;3.50;;;1.98;;
64598;SDS011;51008;51.504;11.548;2023-04-24T10:30:05;4.27;;;1.70;;
64598;SDS011;51008;51.504;11.548;2023-04-24T10:35:08;2.93;;;1.83;;
64598;SDS011;51008;51.504;11.548;2023-04-24T10:40:11;2.03;;;1.40;;
64598;SDS011;51008;51.504;11.548;2023-04-24T10:45:16;5.70;;;1.77;;
64598;SDS011;51008;51.504;11.548;2023-04-24T10:50:18;3.22;;;1.80;;
64598;SDS011;51008;51.504;11.548;2023-04-24T11:00:42;3.22;;;2.10;;
64598;SDS011;51008;51.504;11.548;2023-04-24T11:05:51;2.78;;;2.10;;
64598;SDS011;51008;51.504;11.548;2023-04-24T11:10:57;3.22;;;2.20;;
64598;SDS011;51008;51.504;11.548;2023-04-24T11:16:12;3.72;;;2.05;;
64598;SDS011;51008;51.504;11.548;2023-04-24T11:21:17;4.45;;;2.10;;
64598;SDS011;51008;51.504;11.548;2023-04-24T11:26:19;3.10;;;2.25;;
64598;SDS011;51008;51.504;11.548;2023-04-24T11:36:42;4.63;;;2.40;;
64598;SDS011;51008;51.504;11.548;2023-04-24T11:41:44;2.85;;;2.03;;
64598;SDS011;51008;51.504;11.548;2023-04-24T11:46:45;3.55;;;2.15;;
64598;SDS011;51008;51.504;11.548;2023-04-24T11:51:46;3.58;;;2.38;;
64598;SDS011;51008;51.504;11.548;2023-04-24T11:56:47;3.80;;;2.22;;
64598;SDS011;51008;51.504;11.548;2023-04-24T12:01:50;5.95;;;2.72;;
64598;SDS011;51008;51.504;11.548;2023-04-24T12:07:03;5.68;;;2.30;;
64598;SDS011;51008;51.504;11.548;2023-04-24T12:12:05;10.70;;;2.65;;
64598;SDS011;51008;51.504;11.548;2023-04-24T12:17:07;4.95;;;2.40;;
64598;SDS011;51008;51.504;11.548;2023-04-24T12:22:08;4.90;;;2.50;;
64598;SDS011;51008;51.504;11.548;2023-04-24T12:27:18;6.88;;;2.63;;
64598;SDS011;51008;51.504;11.548;2023-04-24T12:32:20;5.30;;;2.63;;
64598;SDS011;51008;51.504;11.548;2023-04-24T12:37:25;4.90;;;2.55;;
64598;SDS011;51008;51.504;11.548;2023-04-24T12:42:30;6.88;;;2.80;;
64598;SDS011;51008;51.504;11.548;2023-04-24T12:47:32;7.35;;;2.60;;
64598;SDS011;51008;51.504;11.548;2023-04-24T12:52:33;5.05;;;2.70;;
64598;SDS011;51008;51.504;11.548;2023-04-24T12:57:35;6.43;;;2.67;;
64598;SDS011;51008;51.504;11.548;2023-04-24T13:02:37;3.95;;;2.45;;
64598;SDS011;51008;51.504;11.548;2023-04-24T13:07:38;8.73;;;2.72;;
64598;SDS011;51008;51.504;11.548;2023-04-24T13:12:40;3.53;;;2.30;;
64598;SDS011;51008;51.504;11.548;2023-04-24T13:17:41;3.03;;;2.00;;
64598;SDS011;51008;51.504;11.548;2023-04-24T13:22:42;4.28;;;2.20;;
64598;SDS011;51008;51.504;11.548;2023-04-24T13:27:43;2.00;;;1.80;;
64598;SDS011;51008;51.504;11.548;2023-04-24T13:32:44;3.10;;;1.27;;
64598;SDS011;51008;51.504;11.548;2023-04-24T13:37:45;1.55;;;1.40;;
64598;SDS011;51008;51.504;11.548;2023-04-24T13:42:46;3.17;;;1.35;;
64598;SDS011;51008;51.504;11.548;2023-04-24T13:47:47;3.28;;;1.05;;
64598;SDS011;51008;51.504;11.548;2023-04-24T13:52:48;1.70;;;0.95;;
64598;SDS011;51008;51.504;11.548;2023-04-24T13:57:49;3.50;;;1.00;;
64598;SDS011;51008;51.504;11.548;2023-04-24T14:02:50;3.60;;;1.02;;
64598;SDS011;51008;51.504;11.548;2023-04-24T14:07:51;4.50;;;0.80;;
64598;SDS011;51008;51.504;11.548;2023-04-24T14:12:52;1.67;;;0.90;;
64598;SDS011;51008;51.504;11.548;2023-04-24T14:17:53;1.15;;;1.02;;
64598;SDS011;51008;51.504;11.548;2023-04-24T14:22:54;0.65;;;0.65;;
64598;SDS011;51008;51.504;11.548;2023-04-24T14:27:55;0.65;;;0.65;;
64598;SDS011;51008;51.504;11.548;2023-04-24T14:32:56;0.77;;;0.77;;
64598;SDS011;51008;51.504;11.548;2023-04-24T14:37:57;1.60;;;0.88;;
64598;SDS011;51008;51.504;11.548;2023-04-24T14:42:58;1.35;;;0.80;;
64598;SDS011;51008;51.504;11.548;2023-04-24T14:47:59;3.17;;;0.70;;
64598;SDS011;51008;51.504;11.548;2023-04-24T14:53:00;1.08;;;0.80;;
64598;SDS011;51008;51.504;11.548;2023-04-24T14:58:01;0.70;;;0.70;;
64598;SDS011;51008;51.504;11.548;2023-04-24T15:03:03;1.67;;;0.80;;
64598;SDS011;51008;51.504;11.548;2023-04-24T15:08:04;1.35;;;0.60;;
64598;SDS011;51008;51.504;11.548;2023-04-24T15:13:05;1.05;;;0.60;;
64598;SDS011;51008;51.504;11.548;2023-04-24T15:18:07;3.92;;;1.40;;
64598;SDS011;51008;51.504;11.548;2023-04-24T15:23:09;2.53;;;0.65;;
64598;SDS011;51008;51.504;11.548;2023-04-24T15:28:10;0.45;;;0.38;;
64598;SDS011;51008;51.504;11.548;2023-04-24T15:33:11;0.98;;;0.77;;
64598;SDS011;51008;51.504;11.548;2023-04-24T15:38:12;1.17;;;0.90;;
64598;SDS011;51008;51.504;11.548;2023-04-24T15:43:13;0.95;;;0.80;;
64598;SDS011;51008;51.504;11.548;2023-04-24T15:48:14;0.93;;;0.70;;
64598;SDS011;51008;51.504;11.548;2023-04-24T15:53:15;0.63;;;0.57;;
64598;SDS011;51008;51.504;11.548;2023-04-24T15:58:17;3.33;;;0.63;;
64598;SDS011;51008;51.504;11.548;2023-04-24T16:03:21;1.98;;;0.90;;
64598;SDS011;51008;51.504;11.548;2023-04-24T16:08:22;0.75;;;0.60;;
64598;SDS011;51008;51.504;11.548;2023-04-24T16:13:23;0.85;;;0.70;;
64598;SDS011;51008;51.504;11.548;2023-04-24T16:18:24;1.08;;;1.00;;
64598;SDS011;51008;51.504;11.548;2023-04-24T16:23:25;1.90;;;0.80;;
64598;SDS011;51008;51.504;11.548;2023-04-24T16:28:26;1.10;;;1.00;;
64598;SDS011;51008;51.504;11.548;2023-04-24T16:33:27;1.10;;;1.00;;
64598;SDS011;51008;51.504;11.548;2023-04-24T16:38:28;1.10;;;1.00;;
64598;SDS011;51008;51.504;11.548;2023-04-24T16:43:29;1.50;;;1.40;;
64598;SDS011;51008;51.504;11.548;2023-04-24T16:48:31;2.17;;;1.60;;
64598;SDS011;51008;51.504;11.548;2023-04-24T16:53:33;2.13;;;1.73;;
64598;SDS011;51008;51.504;11.548;2023-04-24T16:58:34;2.95;;;2.15;;
64598;SDS011;51008;51.504;11.548;2023-04-24T17:03:35;5.00;;;2.60;;
64598;SDS011;51008;51.504;11.548;2023-04-24T17:08:36;4.93;;;2.58;;
64598;SDS011;51008;51.504;11.548;2023-04-24T17:13:38;5.88;;;2.90;;
64598;SDS011;51008;51.504;11.548;2023-04-24T17:18:40;4.57;;;2.80;;
64598;SDS011;51008;51.504;11.548;2023-04-24T17:23:41;5.13;;;3.35;;
64598;SDS011;51008;51.504;11.548;2023-04-24T17:28:43;9.02;;;4.50;;
64598;SDS011;51008;51.504;11.548;2023-04-24T17:33:44;11.00;;;5.88;;
64598;SDS011;51008;51.504;11.548;2023-04-24T17:38:45;9.00;;;4.53;;
64598;SDS011;51008;51.504;11.548;2023-04-24T17:43:46;10.65;;;4.53;;
64598;SDS011;51008;51.504;11.548;2023-04-24T17:48:49;14.35;;;7.35;;
64598;SDS011;51008;51.504;11.548;2023-04-24T17:53:50;9.77;;;4.75;;
64598;SDS011;51008;51.504;11.548;2023-04-24T17:58:51;8.45;;;5.20;;
64598;SDS011;51008;51.504;11.548;2023-04-24T18:03:52;6.88;;;4.40;;
64598;SDS011;51008;51.504;11.548;2023-04-24T18:08:53;9.38;;;5.10;;
64598;SDS011;51008;51.504;11.548;2023-04-24T18:13:54;6.95;;;4.15;;
64598;SDS011;51008;51.504;11.548;2023-04-24T18:18:56;12.57;;;4.60;;
64598;SDS011;51008;51.504;11.548;2023-04-24T18:23:58;12.35;;;4.47;;
64598;SDS011;51008;51.504;11.548;2023-04-24T18:28:59;9.60;;;4.32;;
64598;SDS011;51008;51.504;11.548;2023-04-24T18:33:59;8.80;;;4.72;;
64598;SDS011;51008;51.504;11.548;2023-04-24T18:39:02;6.78;;;4.57;;
64598;SDS011;51008;51.504;11.548;2023-04-24T18:44:03;10.43;;;4.32;;
64598;SDS011;51008;51.504;11.548;2023-04-24T18:49:05;8.93;;;4.63;;
64598;SDS011;51008;51.504;11.548;2023-04-24T18:54:06;9.55;;;4.38;;
64598;SDS011;51008;51.504;11.548;2023-04-24T18:59:12;8.30;;;4.32;;
64598;SDS011;51008;51.504;11.548;2023-04-24T19:04:13;9.90;;;4.90;;
64598;SDS011;51008;51.504;11.548;2023-04-24T19:09:15;10.50;;;5.32;;
64598;SDS011;51008;51.504;11.548;2023-04-24T19:14:18;10.45;;;4.28;;
64598;SDS011;51008;51.504;11.548;2023-04-24T19:19:20;7.95;;;4.43;;
64598;SDS011;51008;51.504;11.548;2023-04-24T19:24:21;10.90;;;5.40;;
64598;SDS011;51008;51.504;11.548;2023-04-24T19:29:22;9.65;;;5.00;;
64598;SDS011;51008;51.504;11.548;2023-04-24T19:34:23;9.57;;;5.18;;
64598;SDS011;51008;51.504;11.548;2023-04-24T19:39:26;8.63;;;5.20;;
64598;SDS011;51008;51.504;11.548;2023-04-24T19:44:27;12.77;;;5.55;;
64598;SDS011;51008;51.504;11.548;2023-04-24T19:49:29;9.52;;;4.80;;
64598;SDS011;51008;51.504;11.548;2023-04-24T19:54:30;8.85;;;4.95;;
64598;SDS011;51008;51.504;11.548;2023-04-24T19:59:31;8.30;;;4.65;;
64598;SDS011;51008;51.504;11.548;2023-04-24T20:04:33;11.65;;;5.30;;
64598;SDS011;51008;51.504;11.548;2023-04-24T20:09:34;9.93;;;5.10;;
64598;SDS011;51008;51.504;11.548;2023-04-24T20:14:35;14.27;;;6.32;;
64598;SDS011;51008;51.504;11.548;2023-04-24T20:19:36;10.07;;;5.40;;
64598;SDS011;51008;51.504;11.548;2023-04-24T20:24:37;10.25;;;5.47;;
64598;SDS011;51008;51.504;11.548;2023-04-24T20:29:38;9.55;;;5.13;;
64598;SDS011;51008;51.504;11.548;2023-04-24T20:34:39;11.70;;;5.10;;
64598;SDS011;51008;51.504;11.548;2023-04-24T20:39:40;8.82;;;5.53;;
64598;SDS011;51008;51.504;11.548;2023-04-24T20:44:41;10.07;;;5.50;;
64598;SDS011;51008;51.504;11.548;2023-04-24T20:49:42;11.30;;;5.60;;
64598;SDS011;51008;51.504;11.548;2023-04-24T20:54:43;12.57;;;5.32;;
64598;SDS011;51008;51.504;11.548;2023-04-24T20:59:44;12.82;;;5.65;;
64598;SDS011;51008;51.504;11.548;2023-04-24T21:04:45;11.13;;;4.90;;
64598;SDS011;51008;51.504;11.548;2023-04-24T21:09:46;39.03;;;19.92;;
64598;SDS011;51008;51.504;11.548;2023-04-24T21:14:47;15.68;;;8.68;;
64598;SDS011;51008;51.504;11.548;2023-04-24T21:19:48;12.65;;;6.18;;
64598;SDS011;51008;51.504;11.548;2023-04-24T21:24:49;9.73;;;5.28;;
64598;SDS011;51008;51.504;11.548;2023-04-24T21:29:50;9.52;;;5.35;;
64598;SDS011;51008;51.504;11.548;2023-04-24T21:34:51;9.52;;;4.97;;
64598;SDS011;51008;51.504;11.548;2023-04-24T21:39:52;10.23;;;4.75;;
64598;SDS011;51008;51.504;11.548;2023-04-24T21:44:53;9.18;;;4.90;;
64598;SDS011;51008;51.504;11.548;2023-04-24T21:49:54;9.30;;;5.10;;
64598;SDS011;51008;51.504;11.548;2023-04-24T21:54:55;9.07;;;5.05;;
64598;SDS011;51008;51.504;11.548;2023-04-24T21:59:56;9.80;;;5.28;;
64598;SDS011;51008;51.504;11.548;2023-04-24T22:04:57;9.40;;;5.53;;
64598;SDS011;51008;51.504;11.548;2023-04-24T22:09:58;10.35;;;4.45;;
64598;SDS011;51008;51.504;11.548;2023-04-24T22:14:59;10.75;;;5.20;;
64598;SDS011;51008;51.504;11.548;2023-04-24T22:20:00;8.82;;;5.10;;
64598;SDS011;51008;51.504;11.548;2023-04-24T22:25:01;10.55;;;5.15;;
64598;SDS011;51008;51.504;11.548;2023-04-24T22:30:02;12.30;;;5.72;;
64598;SDS011;51008;51.504;11.548;2023-04-24T22:35:03;12.20;;;5.40;;
64598;SDS011;51008;51.504;11.548;2023-04-24T22:40:05;8.82;;;5.20;;
64598;SDS011;51008;51.504;11.548;2023-04-24T22:45:06;8.88;;;5.15;;
64598;SDS011;51008;51.504;11.548;2023-04-24T22:50:08;8.73;;;5.18;;
64598;SDS011;51008;51.504;11.548;2023-04-24T22:55:10;8.43;;;4.90;;
64598;SDS011;51008;51.504;11.548;2023-04-24T23:00:11;9.32;;;5.22;;
64598;SDS011;51008;51.504;11.548;2023-04-24T23:05:13;8.25;;;5.25;;
64598;SDS011;51008;51.504;11.548;2023-04-24T23:10:13;8.25;;;4.80;;
64598;SDS011;51008;51.504;11.548;2023-04-24T23:15:14;10.70;;;6.30;;
64598;SDS011;51008;51.504;11.548;2023-04-24T23:20:15;9.30;;;5.00;;
64598;SDS011;51008;51.504;11.548;2023-04-24T23:25:16;11.98;;;6.47;;
64598;SDS011;51008;51.504;11.548;2023-04-24T23:30:17;10.70;;;5.97;;
64598;SDS011;51008;51.504;11.548;2023-04-24T23:35:18;13.77;;;7.13;;
64598;SDS011;51008;51.504;11.548;2023-04-24T23:40:19;8.35;;;5.35;;
64598;SDS011;51008;51.504;11.548;2023-04-24T23:45:20;9.88;;;6.05;;
64598;SDS011;51008;51.504;11.548;2023-04-24T23:50:21;10.27;;;5.63;;
64598;SDS011;51008;51.504;11.548;2023-04-24T23:55:22;9.65;;;6.03;;
